Time;durP1;ratioP1;P1;durP2;ratioP2;P2;SDS_P1;SDS_P2;PMS_P1;PMS_P2;Temp;Humidity;BMP_temperature;BMP_pressure;BME280_temperature;BME280_humidity;BME280_pressure;Samples;Min_cycle;Max_cycle;Signal;HPM_P1;HPM_P2
2023/01/28 00:02:17;;;;;;;42.95;22.10;;;0.20;99.90;;;;;;5072522;28;20036;-66
2023/01/28 00:04:43;;;;;;;40.70;22.10;;;0.20;99.90;;;;;;5072845;28;20032;-66
2023/01/28 00:07:09;;;;;;;38.42;20.67;;;0.20;99.90;;;;;;5071119;28;20055;-66
2023/01/28 00:09:35;;;;;;;40.67;20.27;;;0.20;99.90;;;;;;5075187;28;20099;-66
2023/01/28 00:12:00;;;;;;;40.05;21.67;;;0.20;99.90;;;;;;5072710;28;20032;-66
2023/01/28 00:14:26;;;;;;;38.65;21.90;;;0.20;99.90;;;;;;5072651;28;20032;-66
2023/01/28 00:16:51;;;;;;;38.45;20.20;;;0.20;99.90;;;;;;5072724;28;20120;-66
2023/01/28 00:19:17;;;;;;;42.17;22.38;;;0.20;99.90;;;;;;5076387;28;20488;-66
2023/01/28 00:21:43;;;;;;;41.22;21.20;;;0.20;99.90;;;;;;5076517;28;20052;-68
2023/01/28 00:24:08;;;;;;;40.53;21.35;;;0.30;99.90;;;;;;5076198;28;20029;-67
2023/01/28 00:26:34;;;;;;;38.90;21.08;;;0.30;99.90;;;;;;5076329;28;20035;-66
2023/01/28 00:29:00;;;;;;;38.80;20.90;;;0.20;99.90;;;;;;5076180;28;20033;-67
2023/01/28 00:31:27;;;;;;;34.30;19.90;;;0.20;99.90;;;;;;5076680;28;20415;-66
2023/01/28 00:33:53;;;;;;;38.38;21.08;;;0.30;99.90;;;;;;5076508;28;20105;-66
2023/01/28 00:36:21;;;;;;;41.63;21.50;;;0.20;99.90;;;;;;5076078;28;20029;-66
2023/01/28 00:38:55;;;;;;;37.83;20.52;;;0.20;99.90;;;;;;5076400;28;20036;-66
2023/01/28 00:41:23;;;;;;;41.05;22.63;;;0.20;99.90;;;;;;5076083;28;20059;-66
2023/01/28 00:43:49;;;;;;;39.72;20.50;;;0.30;99.90;;;;;;5074746;28;20119;-66
2023/01/28 00:46:15;;;;;;;40.40;21.08;;;0.30;99.90;;;;;;5075818;28;20384;-66
2023/01/28 00:48:42;;;;;;;43.97;21.67;;;0.20;99.90;;;;;;5075917;28;20481;-66
2023/01/28 00:51:10;;;;;;;37.10;20.02;;;0.20;99.90;;;;;;5075502;28;20465;-66
2023/01/28 00:53:37;;;;;;;41.33;20.85;;;0.30;99.90;;;;;;5076432;28;20373;-66
2023/01/28 00:56:04;;;;;;;39.50;22.45;;;0.20;99.90;;;;;;5075597;28;20160;-67
2023/01/28 00:58:30;;;;;;;38.33;21.10;;;0.20;99.90;;;;;;5075887;28;20030;-68
2023/01/28 01:00:56;;;;;;;39.10;21.40;;;0.20;99.90;;;;;;5075994;28;20056;-67
2023/01/28 01:03:21;;;;;;;40.35;21.13;;;0.10;99.90;;;;;;5075264;28;20020;-67
2023/01/28 01:05:47;;;;;;;42.03;22.25;;;0.20;99.90;;;;;;5075654;28;20031;-67
2023/01/28 01:08:12;;;;;;;43.85;22.40;;;0.10;99.90;;;;;;5075496;28;20033;-68
2023/01/28 01:10:39;;;;;;;46.63;24.38;;;0.10;99.90;;;;;;5075968;28;20040;-68
2023/01/28 01:13:05;;;;;;;46.08;23.27;;;0.10;99.90;;;;;;5075059;28;20021;-66
2023/01/28 01:15:31;;;;;;;44.95;22.75;;;0.10;99.90;;;;;;5075843;28;20032;-66
2023/01/28 01:17:57;;;;;;;52.65;25.15;;;0.20;99.90;;;;;;5075252;28;20495;-66
2023/01/28 01:20:26;;;;;;;43.47;22.80;;;0.20;99.90;;;;;;5075175;28;20538;-66
2023/01/28 01:22:52;;;;;;;46.83;24.27;;;0.20;99.90;;;;;;5075335;28;20033;-66
2023/01/28 01:25:18;;;;;;;51.08;25.70;;;0.20;99.90;;;;;;5074878;28;20465;-66
2023/01/28 01:27:46;;;;;;;46.80;23.35;;;0.20;99.90;;;;;;5075568;28;20039;-66
2023/01/28 01:30:12;;;;;;;47.92;24.35;;;0.20;99.90;;;;;;5073494;28;20082;-66
2023/01/28 01:32:38;;;;;;;44.42;24.25;;;0.20;99.90;;;;;;5075312;28;20033;-66
2023/01/28 01:35:06;;;;;;;46.25;24.73;;;0.20;99.90;;;;;;5074940;28;20032;-67
2023/01/28 01:37:33;;;;;;;47.22;25.00;;;0.20;99.90;;;;;;5075460;28;20446;-66
2023/01/28 01:40:00;;;;;;;48.50;25.70;;;0.20;99.90;;;;;;5075098;28;20115;-66
2023/01/28 01:42:27;;;;;;;51.25;24.52;;;0.20;99.90;;;;;;5074880;28;20024;-66
2023/01/28 01:44:59;;;;;;;49.80;23.65;;;0.20;99.90;;;;;;5074760;28;20120;-66
2023/01/28 01:47:58;;;;;;;45.58;23.63;;;0.20;99.90;;;;;;5074671;28;20408;-68
2023/01/28 01:50:33;;;;;;;50.03;25.30;;;0.10;99.90;;;;;;5074902;28;20063;-68
2023/01/28 01:53:08;;;;;;;47.10;23.88;;;0.10;99.90;;;;;;5075286;28;20091;-66
2023/01/28 01:55:38;;;;;;;39.70;21.95;;;0.10;99.90;;;;;;5075156;28;20512;-66
2023/01/28 01:58:09;;;;;;;41.63;22.30;;;0.10;99.90;;;;;;5074631;28;20492;-66
2023/01/28 02:00:34;;;;;;;49.80;24.60;;;0.20;99.90;;;;;;5074752;28;20020;-66
2023/01/28 02:03:00;;;;;;;47.40;23.52;;;0.20;99.90;;;;;;5074661;28;20058;-66
2023/01/28 02:05:26;;;;;;;43.75;22.88;;;0.10;99.90;;;;;;5074459;28;20031;-67
2023/01/28 02:08:19;;;;;;;45.60;24.00;;;0.10;99.90;;;;;;5074754;28;20029;-67
2023/01/28 02:10:49;;;;;;;43.40;22.38;;;0.10;99.90;;;;;;5074345;28;20024;-67
2023/01/28 02:13:16;;;;;;;42.78;23.20;;;0.10;99.90;;;;;;5074478;28;20024;-67
2023/01/28 02:15:43;;;;;;;45.65;24.77;;;0.10;99.90;;;;;;5075184;28;20169;-67
2023/01/28 02:18:09;;;;;;;45.65;23.58;;;0.10;99.90;;;;;;5076771;28;20032;-67
2023/01/28 02:21:12;;;;;;;47.13;24.77;;;0.10;99.90;;;;;;5074265;28;20027;-67
2023/01/28 02:24:15;;;;;;;48.97;24.33;;;0.20;99.90;;;;;;5074567;28;20435;-65
2023/01/28 02:26:55;;;;;;;44.83;23.42;;;0.10;99.90;;;;;;5074335;28;20107;-67
2023/01/28 02:29:37;;;;;;;45.38;22.55;;;0.20;99.90;;;;;;5074090;28;20041;-66
2023/01/28 02:32:19;;;;;;;47.13;24.63;;;0.10;99.90;;;;;;5074140;28;20029;-65
2023/01/28 02:34:53;;;;;;;43.40;23.63;;;0.20;99.90;;;;;;5074299;28;20047;-66
2023/01/28 02:37:24;;;;;;;48.22;24.88;;;0.20;99.90;;;;;;5073816;28;20063;-66
2023/01/28 02:40:03;;;;;;;43.35;23.17;;;0.10;99.90;;;;;;5076212;28;20078;-67
2023/01/28 02:42:31;;;;;;;45.47;23.55;;;0.20;99.90;;;;;;5080707;28;20095;-67
2023/01/28 02:44:57;;;;;;;48.13;24.83;;;0.10;99.90;;;;;;5074725;28;20074;-67
2023/01/28 02:50:14;;;;;;;45.70;23.75;;;0.20;99.90;;;;;;5074381;28;20099;-67
2023/01/28 02:55:51;;;;;;;48.60;25.27;;;0.20;99.90;;;;;;5073837;28;20039;-66
2023/01/28 02:58:20;;;;;;;47.05;23.25;;;0.20;99.90;;;;;;5073601;28;20035;-66
2023/01/28 03:00:54;;;;;;;49.90;24.35;;;0.20;99.90;;;;;;5074206;28;20115;-66
2023/01/28 03:03:47;;;;;;;42.65;23.40;;;0.20;99.90;;;;;;5073783;28;20028;-66
2023/01/28 03:06:17;;;;;;;45.83;24.63;;;0.20;99.90;;;;;;5073496;28;20024;-68
2023/01/28 03:37:27;;;;;;;49.95;24.30;;;0.10;99.90;;;;;;5072482;28;20432;-67
2023/01/28 03:39:56;;;;;;;44.72;23.73;;;0.10;99.90;;;;;;5073047;28;20102;-66
2023/01/28 03:42:22;;;;;;;48.67;25.00;;;0.00;99.90;;;;;;5072748;28;20047;-67
2023/01/28 03:44:51;;;;;;;46.05;24.88;;;0.10;99.90;;;;;;5071826;28;20469;-67
2023/01/28 03:47:25;;;;;;;47.78;24.90;;;0.10;99.90;;;;;;5072619;28;20154;-67
2023/01/28 03:49:53;;;;;;;47.83;25.13;;;0.00;99.90;;;;;;5073026;28;20048;-66
2023/01/28 03:52:24;;;;;;;45.50;24.88;;;0.00;99.90;;;;;;5071863;28;20021;-67
2023/01/28 03:54:51;;;;;;;;;;;-0.10;99.90;;;;;;5073846;28;20050;-67
2023/01/28 03:57:21;;;;;;;49.45;24.00;;;-0.10;99.90;;;;;;5072466;28;19962;-67
2023/01/28 03:59:48;;;;;;;49.33;24.70;;;-0.10;99.90;;;;;;5072933;28;20056;-67
2023/01/28 04:02:15;;;;;;;50.00;24.88;;;-0.10;99.90;;;;;;5072546;28;20025;-67
2023/01/28 04:04:41;;;;;;;54.58;26.73;;;-0.10;99.90;;;;;;5072638;28;20413;-66
2023/01/28 04:07:09;;;;;;;52.55;26.58;;;-0.10;99.90;;;;;;5072520;28;20024;-66
2023/01/28 04:09:36;;;;;;;54.63;26.40;;;-0.10;99.90;;;;;;5072402;28;20478;-66
2023/01/28 04:12:02;;;;;;;53.17;25.33;;;-0.10;99.90;;;;;;5073036;28;20071;-66
2023/01/28 04:14:28;;;;;;;51.72;27.08;;;-0.10;99.90;;;;;;5070932;28;20025;-67
2023/01/28 04:16:54;;;;;;;51.38;25.17;;;-0.10;99.90;;;;;;5072517;28;20537;-66
2023/01/28 04:19:20;;;;;;;52.15;25.70;;;-0.10;99.90;;;;;;5072355;28;20115;-66
2023/01/28 04:21:46;;;;;;;45.97;24.33;;;-0.10;99.90;;;;;;5072770;28;20453;-66
2023/01/28 04:24:12;;;;;;;51.67;25.52;;;-0.10;99.90;;;;;;5071349;28;20514;-66
2023/01/28 04:26:38;;;;;;;50.60;24.98;;;-0.10;99.90;;;;;;5074815;28;20044;-65
2023/01/28 04:29:05;;;;;;;51.97;26.55;;;-0.10;99.90;;;;;;5092779;28;20044;-65
2023/01/28 04:31:31;;;;;;;52.65;25.85;;;-0.20;99.90;;;;;;5092274;28;20457;-67
2023/01/28 04:33:57;;;;;;;50.97;25.95;;;-0.20;99.90;;;;;;5092711;28;20518;-66
2023/01/28 04:36:23;;;;;;;51.20;25.30;;;-0.20;99.90;;;;;;5092012;28;20028;-67
2023/01/28 04:38:49;;;;;;;51.80;27.10;;;-0.20;99.90;;;;;;5092647;28;20044;-65
2023/01/28 04:41:15;;;;;;;54.17;26.45;;;-0.10;99.90;;;;;;5092488;28;20055;-65
2023/01/28 04:43:40;;;;;;;52.20;26.58;;;-0.10;99.90;;;;;;5090845;28;20016;-66
2023/01/28 04:46:06;;;;;;;51.03;26.42;;;-0.10;99.90;;;;;;5086155;28;20036;-65
2023/01/28 04:48:33;;;;;;;52.28;27.08;;;-0.20;99.90;;;;;;5071744;28;20033;-67
2023/01/28 04:50:59;;;;;;;54.40;28.48;;;-0.20;99.90;;;;;;5072212;28;20064;-67
2023/01/28 04:53:25;;;;;;;48.38;25.15;;;-0.20;99.90;;;;;;5070664;28;20024;-67
2023/01/28 04:55:51;;;;;;;53.17;28.20;;;-0.20;99.90;;;;;;5072191;28;20055;-67
2023/01/28 04:58:16;;;;;;;51.55;26.17;;;-0.20;99.90;;;;;;5072181;28;20060;-66
2023/01/28 05:00:42;;;;;;;49.35;26.40;;;-0.10;99.90;;;;;;5072094;28;20060;-66
2023/01/28 05:03:07;;;;;;;49.03;26.58;;;-0.10;99.90;;;;;;5073235;28;20418;-66
2023/01/28 05:05:33;;;;;;;54.92;26.52;;;-0.10;99.90;;;;;;5075178;28;20454;-66
2023/01/28 05:07:59;;;;;;;50.92;26.02;;;-0.20;99.90;;;;;;5075457;28;20425;-66
2023/01/28 05:10:26;;;;;;;50.83;25.83;;;-0.10;99.90;;;;;;5075646;28;20477;-67
2023/01/28 05:12:52;;;;;;;49.05;26.20;;;-0.20;99.90;;;;;;5075334;28;20544;-66
2023/01/28 05:15:19;;;;;;;53.38;26.88;;;-0.20;99.90;;;;;;5075668;28;20052;-66
2023/01/28 05:17:45;;;;;;;51.55;25.88;;;-0.10;99.90;;;;;;5075611;28;20376;-66
2023/01/28 05:20:12;;;;;;;54.47;27.10;;;-0.10;99.90;;;;;;5075600;28;20465;-66
2023/01/28 05:22:38;;;;;;;50.40;25.55;;;-0.10;99.90;;;;;;5075229;28;20051;-66
2023/01/28 05:25:05;;;;;;;50.50;26.65;;;-0.10;99.90;;;;;;5075550;28;20028;-66
2023/01/28 05:27:31;;;;;;;50.50;26.55;;;-0.20;99.90;;;;;;5075066;28;20040;-67
2023/01/28 05:29:58;;;;;;;52.65;26.55;;;-0.20;99.90;;;;;;5075167;28;20396;-65
2023/01/28 05:32:24;;;;;;;49.45;25.52;;;-0.20;99.90;;;;;;5075140;28;20095;-66
2023/01/28 05:34:49;;;;;;;52.85;26.80;;;-0.20;99.90;;;;;;5075340;28;20024;-67
2023/01/28 05:37:15;;;;;;;50.38;26.40;;;-0.20;99.90;;;;;;5075283;28;20040;-65
2023/01/28 05:39:41;;;;;;;55.00;27.67;;;-0.20;99.90;;;;;;5074367;28;20150;-68
2023/01/28 05:42:07;;;;;;;49.33;26.27;;;-0.20;99.90;;;;;;5075268;28;20059;-66
2023/01/28 05:44:32;;;;;;;52.60;25.40;;;-0.20;99.90;;;;;;5074721;28;20025;-66
2023/01/28 05:46:58;;;;;;;53.28;26.27;;;-0.20;99.90;;;;;;5074967;28;20104;-66
2023/01/28 05:49:25;;;;;;;49.50;25.00;;;-0.20;99.90;;;;;;5075012;28;20039;-66
2023/01/28 05:51:51;;;;;;;48.42;25.05;;;-0.20;99.90;;;;;;5075443;28;20040;-66
2023/01/28 05:54:17;;;;;;;52.83;26.33;;;-0.20;99.90;;;;;;5075080;28;20028;-66
2023/01/28 05:56:42;;;;;;;51.90;25.35;;;-0.10;99.90;;;;;;5073385;28;20024;-66
2023/01/28 05:59:10;;;;;;;45.65;25.08;;;-0.10;99.90;;;;;;5074959;28;20035;-67
2023/01/28 06:01:35;;;;;;;46.92;24.92;;;-0.10;99.90;;;;;;5078658;28;20055;-67
2023/01/28 06:04:01;;;;;;;49.83;25.42;;;-0.10;99.90;;;;;;5078785;28;20415;-67
2023/01/28 06:06:27;;;;;;;45.88;23.95;;;-0.10;99.90;;;;;;5075107;28;20025;-68
2023/01/28 06:08:52;;;;;;;44.70;24.50;;;-0.10;99.90;;;;;;5074833;28;20115;-67
2023/01/28 06:11:18;;;;;;;50.38;24.48;;;-0.20;99.90;;;;;;5074745;28;20028;-67
2023/01/28 06:13:44;;;;;;;53.67;27.08;;;-0.10;99.90;;;;;;5074316;28;20458;-67
2023/01/28 06:16:09;;;;;;;46.28;23.20;;;-0.10;99.90;;;;;;5073632;28;20020;-67
2023/01/28 06:18:35;;;;;;;46.38;24.35;;;-0.10;99.90;;;;;;5074240;28;20123;-67
2023/01/28 06:21:01;;;;;;;46.20;23.77;;;-0.10;99.90;;;;;;5073400;28;20066;-66
2023/01/28 06:23:26;;;;;;;45.50;22.65;;;-0.10;99.90;;;;;;5074168;28;20020;-68
2023/01/28 06:25:56;;;;;;;44.38;23.30;;;0.00;99.90;;;;;;5074183;28;20031;-67
2023/01/28 06:28:23;;;;;;;45.35;23.52;;;0.00;99.90;;;;;;5084697;28;20044;-66
2023/01/28 06:30:50;;;;;;;41.10;21.88;;;0.00;99.90;;;;;;5093991;28;20499;-67
2023/01/28 06:33:16;;;;;;;45.63;23.13;;;0.10;99.90;;;;;;5094418;28;20024;-66
2023/01/28 06:35:42;;;;;;;43.88;22.42;;;0.00;99.90;;;;;;5094013;28;20117;-67
2023/01/28 06:38:08;;;;;;;43.78;22.70;;;0.10;99.90;;;;;;5094429;28;20421;-66
2023/01/28 06:40:34;;;;;;;42.47;22.83;;;0.10;99.90;;;;;;5084795;28;20080;-67
2023/01/28 06:42:59;;;;;;;44.85;23.33;;;0.00;99.90;;;;;;5074071;28;20032;-67
2023/01/28 06:45:25;;;;;;;40.80;22.52;;;0.10;99.90;;;;;;5073756;28;20062;-72
2023/01/28 06:47:51;;;;;;;46.17;23.15;;;0.10;99.90;;;;;;5073916;28;20029;-67
2023/01/28 06:50:17;;;;;;;46.90;24.92;;;0.10;99.90;;;;;;5072690;28;20028;-66
2023/01/28 06:52:42;;;;;;;45.40;23.48;;;0.10;99.90;;;;;;5073624;28;20027;-66
2023/01/28 06:55:09;;;;;;;48.22;24.77;;;0.10;99.90;;;;;;5073898;28;20465;-66
2023/01/28 06:57:38;;;;;;;49.92;23.95;;;0.10;99.90;;;;;;5073406;28;20032;-66
2023/01/28 07:00:05;;;;;;;53.10;25.95;;;0.20;99.90;;;;;;5073438;28;20496;-66
2023/01/28 07:02:31;;;;;;;49.05;25.33;;;0.20;99.90;;;;;;5073261;28;20028;-66
2023/01/28 07:04:57;;;;;;;47.90;24.13;;;0.20;99.90;;;;;;5073404;28;20582;-66
2023/01/28 07:07:22;;;;;;;50.55;23.73;;;0.20;99.90;;;;;;5073469;28;20037;-66
2023/01/28 07:09:48;;;;;;;51.50;25.50;;;0.20;99.90;;;;;;5073439;28;20469;-66
2023/01/28 07:12:14;;;;;;;49.10;23.52;;;0.20;99.90;;;;;;5073284;28;20097;-66
2023/01/28 07:14:40;;;;;;;51.95;26.20;;;0.20;99.90;;;;;;5073262;28;20024;-66
2023/01/28 07:17:05;;;;;;;47.97;25.02;;;0.20;99.90;;;;;;5073496;28;20032;-66
2023/01/28 07:19:31;;;;;;;47.80;24.85;;;0.20;99.90;;;;;;5073266;28;20028;-66
2023/01/28 07:21:59;;;;;;;49.85;24.48;;;0.20;99.90;;;;;;5073263;28;20103;-67
2023/01/28 07:24:25;;;;;;;49.90;25.15;;;0.20;99.90;;;;;;5072962;28;20485;-66
2023/01/28 07:26:51;;;;;;;50.53;26.00;;;0.20;99.90;;;;;;5073086;28;20037;-67
2023/01/28 07:29:17;;;;;;;51.17;26.88;;;0.10;99.90;;;;;;5072721;28;20044;-67
2023/01/28 07:31:42;;;;;;;52.42;25.08;;;0.20;99.90;;;;;;5072709;28;20032;-67
2023/01/28 07:34:09;;;;;;;56.47;28.55;;;0.20;99.90;;;;;;5073069;28;20020;-66
2023/01/28 07:36:34;;;;;;;48.25;25.95;;;0.20;99.90;;;;;;5072512;28;20389;-67
2023/01/28 07:39:00;;;;;;;52.67;26.40;;;0.20;99.90;;;;;;5072975;28;20028;-66
2023/01/28 07:41:26;;;;;;;50.67;26.35;;;0.20;99.90;;;;;;5072553;28;20055;-66
2023/01/28 07:43:52;;;;;;;51.38;27.65;;;0.20;99.90;;;;;;5072164;28;20465;-66
2023/01/28 07:46:18;;;;;;;50.55;25.92;;;0.30;99.90;;;;;;5071853;28;20082;-67
2023/01/28 07:48:44;;;;;;;54.40;26.70;;;0.30;99.90;;;;;;5072490;28;20032;-66
2023/01/28 07:51:10;;;;;;;51.03;26.70;;;0.30;99.90;;;;;;5072777;28;20073;-66
2023/01/28 07:53:36;;;;;;;52.47;27.80;;;0.30;99.90;;;;;;5072870;28;20124;-66
2023/01/28 07:56:03;;;;;;;58.60;28.08;;;0.30;99.90;;;;;;5072677;28;20032;-66
2023/01/28 07:58:29;;;;;;;51.42;25.88;;;0.30;99.90;;;;;;5072581;28;20427;-66
2023/01/28 08:00:57;;;;;;;53.10;26.27;;;0.30;99.90;;;;;;5072631;28;20086;-66
2023/01/28 08:03:23;;;;;;;51.90;27.60;;;0.30;99.90;;;;;;5072687;28;20469;-66
2023/01/28 08:05:52;;;;;;;47.95;24.92;;;0.30;99.90;;;;;;5072066;28;20023;-67
2023/01/28 08:08:17;;;;;;;48.35;25.38;;;0.30;99.90;;;;;;5072526;28;20033;-66
2023/01/28 08:10:43;;;;;;;52.92;27.13;;;0.40;99.90;;;;;;5072195;28;20384;-67
2023/01/28 08:13:10;;;;;;;52.42;25.45;;;0.40;99.90;;;;;;5072880;28;20108;-67
2023/01/28 08:15:36;;;;;;;53.58;27.70;;;0.40;99.90;;;;;;5072034;28;20031;-66
2023/01/28 08:18:02;;;;;;;48.85;24.75;;;0.40;99.90;;;;;;5072889;28;20385;-66
2023/01/28 08:20:29;;;;;;;52.83;26.23;;;0.50;99.90;;;;;;5072731;28;20074;-67
2023/01/28 08:23:14;;;;;;;48.03;24.73;;;0.50;99.90;;;;;;5072264;28;20051;-67
2023/01/28 08:25:40;;;;;;;51.47;25.85;;;0.50;99.90;;;;;;5076312;28;20024;-65
2023/01/28 08:28:06;;;;;;;47.65;23.88;;;0.60;99.90;;;;;;5092539;28;20059;-67
2023/01/28 08:30:33;;;;;;;48.45;24.88;;;0.60;99.90;;;;;;5092714;28;20024;-65
2023/01/28 08:32:59;;;;;;;53.75;25.95;;;0.60;99.90;;;;;;5091326;28;20028;-67
2023/01/28 08:35:26;;;;;;;50.10;25.75;;;0.60;99.90;;;;;;5092669;28;20150;-67
2023/01/28 08:37:52;;;;;;;47.22;23.60;;;0.60;99.90;;;;;;5092696;28;20032;-67
2023/01/28 08:40:18;;;;;;;46.20;24.08;;;0.60;99.90;;;;;;5083440;28;20044;-66
2023/01/28 08:42:52;;;;;;;51.35;25.80;;;0.70;99.90;;;;;;5075998;28;20033;-66
2023/01/28 08:45:21;;;;;;;51.50;24.70;;;0.70;99.90;;;;;;5076180;28;20097;-66
2023/01/28 08:47:56;;;;;;;51.38;26.52;;;0.70;99.90;;;;;;5075811;28;20084;-67
2023/01/28 08:50:24;;;;;;;48.78;24.92;;;0.70;99.90;;;;;;5076500;28;20021;-66
2023/01/28 08:52:55;;;;;;;52.80;26.13;;;0.70;99.90;;;;;;5075571;28;20024;-67
2023/01/28 08:55:21;;;;;;;50.70;25.65;;;0.80;99.90;;;;;;5076161;28;20427;-65
2023/01/28 08:57:46;;;;;;;46.33;24.02;;;0.80;99.90;;;;;;5075546;28;20032;-66
2023/01/28 09:00:13;;;;;;;49.47;25.23;;;0.80;99.90;;;;;;5076154;28;20068;-67
2023/01/28 09:02:38;;;;;;;49.53;24.88;;;0.80;99.90;;;;;;5075572;28;20024;-67
2023/01/28 09:05:05;;;;;;;53.75;24.35;;;0.80;99.90;;;;;;5075643;28;20427;-65
2023/01/28 09:07:32;;;;;;;47.08;23.77;;;0.80;99.90;;;;;;5075770;28;20068;-67
2023/01/28 09:09:58;;;;;;;44.38;24.00;;;0.80;99.90;;;;;;5075177;28;20385;-67
2023/01/28 09:12:24;;;;;;;52.45;25.35;;;0.80;99.90;;;;;;5075423;28;20029;-69
2023/01/28 09:14:51;;;;;;;50.42;25.90;;;0.70;99.90;;;;;;5075165;28;20021;-67
2023/01/28 09:17:16;;;;;;;46.10;23.52;;;0.70;99.90;;;;;;5075801;28;20047;-67
2023/01/28 09:19:42;;;;;;;48.97;25.02;;;0.80;99.90;;;;;;5075252;28;20419;-67
2023/01/28 09:22:08;;;;;;;49.85;24.85;;;0.80;99.90;;;;;;5078429;28;20025;-67
2023/01/28 09:24:33;;;;;;;50.40;26.67;;;0.80;99.90;;;;;;5081200;28;20035;-66
2023/01/28 09:26:59;;;;;;;52.70;25.92;;;0.80;99.90;;;;;;5075351;28;20017;-67
2023/01/28 09:29:25;;;;;;;48.30;26.52;;;0.90;99.90;;;;;;5075082;28;20090;-67
2023/01/28 09:31:50;;;;;;;48.97;24.50;;;0.90;99.90;;;;;;5074918;28;20024;-67
2023/01/28 09:34:16;;;;;;;49.53;25.02;;;0.90;99.90;;;;;;5075353;28;20036;-66
2023/01/28 09:36:42;;;;;;;54.47;25.80;;;0.90;99.90;;;;;;5076583;28;20115;-67
2023/01/28 09:39:07;;;;;;;48.88;24.92;;;0.90;99.90;;;;;;5079533;28;20053;-67
2023/01/28 09:41:52;;;;;;;49.45;24.05;;;0.90;99.90;;;;;;5079508;28;20072;-67
2023/01/28 09:44:52;;;;;;;47.53;24.13;;;1.00;99.90;;;;;;5076561;28;20028;-66
2023/01/28 09:47:31;;;;;;;48.00;23.70;;;0.90;99.90;;;;;;5075256;28;20032;-66
2023/01/28 09:50:02;;;;;;;47.67;24.00;;;0.90;99.90;;;;;;5073580;28;20510;-66
2023/01/28 09:52:32;;;;;;;44.42;23.10;;;1.00;99.90;;;;;;5075084;28;20028;-67
2023/01/28 09:55:03;;;;;;;45.55;23.27;;;1.00;99.90;;;;;;5074596;28;20028;-66
2023/01/28 09:58:04;;;;;;;43.45;22.95;;;1.00;99.90;;;;;;5075060;28;20028;-66
2023/01/28 10:00:44;;;;;;;41.72;22.40;;;1.10;99.90;;;;;;5042046;28;20028;-67
2023/01/28 10:03:32;;;;;;;44.03;21.88;;;1.10;99.90;;;;;;5074546;28;20477;-67
2023/01/28 10:06:14;;;;;;;40.92;20.67;;;1.20;99.90;;;;;;5074187;28;20036;-66
2023/01/28 10:09:17;;;;;;;41.30;21.00;;;1.20;99.90;;;;;;5073369;28;20123;-72
2023/01/28 10:11:49;;;;;;;40.35;20.98;;;1.20;99.90;;;;;;5074048;28;20028;-66
2023/01/28 10:14:33;;;;;;;42.72;21.35;;;1.20;99.90;;;;;;5074263;28;20025;-67
2023/01/28 10:17:27;;;;;;;40.95;20.60;;;1.20;99.90;;;;;;5074125;28;20024;-67
2023/01/28 10:20:01;;;;;;;39.63;21.05;;;1.20;99.90;;;;;;5064917;28;20033;-66
2023/01/28 10:22:36;;;;;;;41.50;21.23;;;1.20;99.90;;;;;;5073911;28;20381;-66
2023/01/28 10:25:12;;;;;;;41.72;20.42;;;1.20;99.90;;;;;;5073998;28;20477;-66
2023/01/28 10:27:38;;;;;;;46.83;22.27;;;1.20;99.90;;;;;;5074195;28;20074;-66
2023/01/28 10:30:18;;;;;;;40.78;21.60;;;1.20;99.90;;;;;;5073967;28;20423;-67
2023/01/28 10:33:00;;;;;;;49.35;21.60;;;1.20;99.90;;;;;;5088398;28;20405;-67
2023/01/28 10:35:28;;;;;;;37.85;20.15;;;1.20;99.90;;;;;;5094248;28;20056;-67
2023/01/28 10:38:01;;;;;;;42.88;21.98;;;1.20;99.90;;;;;;5093902;28;20055;-66
2023/01/28 10:40:27;;;;;;;44.75;21.88;;;1.20;99.90;;;;;;5083165;28;20438;-66
2023/01/28 10:42:53;;;;;;;43.67;21.77;;;1.20;99.90;;;;;;5073637;28;20024;-66
2023/01/28 10:45:44;;;;;;;43.50;22.30;;;1.20;99.90;;;;;;5073936;28;20103;-66
2023/01/28 10:48:19;;;;;;;45.28;23.95;;;1.20;99.90;;;;;;5044656;28;20052;-66
2023/01/28 10:50:58;;;;;;;46.28;22.98;;;1.30;99.90;;;;;;5073523;28;20028;-67
2023/01/28 10:53:38;;;;;;;41.65;21.48;;;1.30;99.90;;;;;;5073606;28;20492;-67
2023/01/28 10:56:10;;;;;;;42.67;21.90;;;1.30;99.90;;;;;;5073428;28;20044;-66
2023/01/28 10:58:49;;;;;;;43.42;22.38;;;1.30;99.90;;;;;;5073284;28;20067;-67
2023/01/28 11:01:14;;;;;;;43.17;22.10;;;1.30;99.90;;;;;;5073247;28;20063;-66
2023/01/28 11:03:53;;;;;;;44.70;22.38;;;1.30;99.90;;;;;;5073723;28;20067;-66
2023/01/28 11:06:27;;;;;;;42.67;21.88;;;1.30;99.90;;;;;;5073736;28;20028;-66
2023/01/28 11:08:54;;;;;;;43.63;20.88;;;1.20;99.90;;;;;;5072960;28;20362;-66
2023/01/28 11:11:27;;;;;;;52.13;23.55;;;1.20;99.90;;;;;;5073702;28;20369;-66
2023/01/28 11:13:57;;;;;;;45.67;23.05;;;1.10;99.90;;;;;;5073254;28;20373;-66
2023/01/28 11:16:24;;;;;;;45.05;23.02;;;1.20;99.90;;;;;;5073552;28;20021;-66
2023/01/28 11:18:57;;;;;;;47.92;22.92;;;1.20;99.90;;;;;;5073110;28;20039;-66
2023/01/28 11:21:26;;;;;;;43.75;22.25;;;1.20;99.90;;;;;;5073827;28;20028;-66
2023/01/28 11:24:00;;;;;;;49.28;23.13;;;1.20;99.90;;;;;;5072884;28;20025;-67
2023/01/28 11:26:33;;;;;;;46.25;23.27;;;1.20;99.90;;;;;;5073401;28;20032;-66
2023/01/28 11:28:59;;;;;;;49.58;24.40;;;1.20;99.90;;;;;;5072829;28;20129;-67
2023/01/28 11:31:25;;;;;;;50.95;23.52;;;1.20;99.90;;;;;;5073420;28;20465;-66
2023/01/28 11:33:57;;;;;;;55.25;26.13;;;1.30;99.90;;;;;;5072404;28;20036;-66
2023/01/28 11:36:26;;;;;;;45.75;23.35;;;1.30;99.90;;;;;;5073075;28;20032;-67
2023/01/28 11:38:53;;;;;;;45.70;22.70;;;1.30;99.90;;;;;;5074211;28;20062;-66
2023/01/28 11:41:35;;;;;;;41.03;22.42;;;1.30;99.90;;;;;;5073177;28;20396;-66
2023/01/28 11:44:13;;;;;;;43.05;22.05;;;1.20;99.90;;;;;;5072401;28;20024;-66
2023/01/28 11:46:57;;;;;;;44.58;22.48;;;1.20;99.90;;;;;;5072937;28;20025;-66
2023/01/28 11:49:41;;;;;;;51.60;23.35;;;1.30;99.90;;;;;;5073051;28;20025;-65
2023/01/28 11:52:07;;;;;;;44.45;22.27;;;1.30;99.90;;;;;;5072210;28;20389;-67
2023/01/28 11:54:38;;;;;;;48.17;24.13;;;1.30;99.90;;;;;;5072805;28;20044;-66
2023/01/28 11:57:10;;;;;;;46.22;23.80;;;1.30;99.90;;;;;;5072141;28;20036;-65
2023/01/28 11:59:58;;;;;;;40.28;21.10;;;1.20;99.90;;;;;;5072780;28;20036;-66
2023/01/28 12:02:30;;;;;;;48.08;22.48;;;1.30;99.90;;;;;;5073192;28;20021;-67
2023/01/28 12:05:01;;;;;;;42.15;22.38;;;1.30;99.90;;;;;;5072179;28;20354;-67
2023/01/28 12:08:18;;;;;;;43.35;22.38;;;1.30;99.90;;;;;;5072716;28;20028;-66
2023/01/28 12:12:10;;;;;;;43.25;21.38;;;1.30;99.90;;;;;;5038658;28;20074;-66
2023/01/28 12:14:31;;;;;;;43.67;22.38;;;1.30;99.90;;;;;;5009236;28;20473;-66
2023/01/28 12:17:30;;;;;;;46.28;22.73;;;1.30;99.90;;;;;;5010293;28;20540;-67
2023/01/28 12:20:06;;;;;;;39.40;19.75;;;1.30;99.90;;;;;;5010187;28;20053;-67
2023/01/28 12:22:59;;;;;;;37.75;21.55;;;1.30;99.90;;;;;;5010558;28;20391;-66
2023/01/28 12:25:24;;;;;;;42.90;21.63;;;1.40;99.90;;;;;;5010660;28;20524;-66
2023/01/28 12:28:13;;;;;;;43.60;21.33;;;1.40;99.90;;;;;;5009953;28;20034;-72
2023/01/28 12:31:07;;;;;;;44.25;21.38;;;1.40;99.90;;;;;;5007715;28;20553;-68
2023/01/28 12:33:56;;;;;;;38.53;20.98;;;1.40;99.90;;;;;;5009664;28;20030;-66
2023/01/28 12:36:25;;;;;;;42.50;21.20;;;1.40;99.90;;;;;;5010254;28;20034;-67
2023/01/28 12:39:09;;;;;;;45.83;21.40;;;1.40;99.90;;;;;;5009497;28;20038;-70
2023/01/28 12:41:41;;;;;;;44.28;22.90;;;1.40;99.90;;;;;;5018236;28;20512;-67
2023/01/28 12:44:18;;;;;;;43.20;21.15;;;1.50;99.90;;;;;;5033717;28;20044;-66
2023/01/28 12:46:54;;;;;;;42.10;22.00;;;1.50;99.90;;;;;;5079408;28;20028;-66
2023/01/28 12:49:43;;;;;;;43.05;20.70;;;1.50;99.90;;;;;;5068440;28;20035;-67
2023/01/28 12:52:31;;;;;;;46.40;21.65;;;1.50;99.90;;;;;;5071938;28;20020;-66
2023/01/28 12:55:11;;;;;;;41.63;20.98;;;1.50;99.90;;;;;;5071736;28;20032;-67
2023/01/28 12:57:37;;;;;;;46.83;21.38;;;1.60;99.90;;;;;;5072233;28;20040;-67
2023/01/28 13:00:25;;;;;;;41.55;20.42;;;1.50;99.90;;;;;;5071695;28;20119;-66
2023/01/28 13:03:05;;;;;;;38.20;20.58;;;1.50;99.90;;;;;;5071054;28;20024;-66
2023/01/28 13:05:37;;;;;;;44.22;21.33;;;1.50;99.90;;;;;;5071973;28;20086;-66
2023/01/28 13:08:09;;;;;;;38.40;19.80;;;1.50;99.90;;;;;;5071701;28;20048;-66
2023/01/28 13:10:42;;;;;;;43.03;22.10;;;1.50;99.90;;;;;;5072340;28;20021;-66
2023/01/28 13:13:14;;;;;;;45.67;21.55;;;1.50;99.90;;;;;;5071677;28;20025;-66
2023/01/28 13:15:42;;;;;;;45.10;21.10;;;1.50;99.90;;;;;;5072283;28;20074;-66
2023/01/28 13:18:39;;;;;;;40.40;20.50;;;1.50;99.90;;;;;;5071391;28;20062;-67
2023/01/28 13:21:12;;;;;;;48.28;21.85;;;1.50;99.90;;;;;;5072121;28;20116;-66
2023/01/28 13:23:41;;;;;;;46.03;21.02;;;1.50;99.90;;;;;;5073392;28;20033;-66
2023/01/28 13:26:31;;;;;;;41.97;21.17;;;1.50;99.90;;;;;;5072656;28;20059;-66
2023/01/28 13:29:31;;;;;;;45.22;20.40;;;1.50;99.90;;;;;;5051485;28;20518;-67